Time;durP1;ratioP1;P1;durP2;ratioP2;P2;SDS_P1;SDS_P2;PMS_P1;PMS_P2;Temp;Humidity;BMP_temperature;BMP_pressure;BME280_temperature;BME280_humidity;BME280_pressure;Samples;Min_cycle;Max_cycle;Signal;HPM_P1;HPM_P2
2021/07/15 00:00:26;;;;;;;20.52;17.05;;;;;;;21.84;70.26;97371.64;1730626;82;21009;-73
2021/07/15 00:02:59;;;;;;;18.52;16.48;;;;;;;21.82;70.54;97369.59;1715183;82;21026;-73
2021/07/15 00:05:28;;;;;;;24.35;16.87;;;;;;;21.76;70.59;97364.73;1726847;82;20982;-73
2021/07/15 00:07:55;;;;;;;20.43;17.45;;;;;;;21.73;71.01;97363.63;1713501;84;21460;-73
2021/07/15 00:10:36;;;;;;;24.90;17.17;;;;;;;21.68;72.91;97364.01;1713376;84;21439;-73
2021/07/15 00:13:05;;;;;;;18.65;16.75;;;;;;;21.62;71.25;97378.00;1713378;82;21498;-73
2021/07/15 00:15:37;;;;;;;18.32;16.40;;;;;;;21.58;71.52;97380.10;1713230;84;21056;-74
2021/07/15 00:18:07;;;;;;;18.95;16.00;;;;;;;21.60;71.41;97378.63;1730517;82;21470;-74
2021/07/15 00:20:40;;;;;;;21.00;16.20;;;;;;;21.58;71.54;97369.80;1742923;82;21048;-74
2021/07/15 00:23:07;;;;;;;17.35;14.95;;;;;;;21.56;71.53;97375.34;1743017;82;20977;-74
2021/07/15 00:25:37;;;;;;;21.60;16.07;;;;;;;21.58;72.19;97377.89;1725555;82;21013;-74
2021/07/15 00:28:06;;;;;;;18.77;15.28;;;;;;;21.55;72.03;97370.91;1716558;82;21407;-74
2021/07/15 00:30:32;;;;;;;20.68;15.60;;;;;;;21.57;72.25;97369.45;1681288;84;21416;-74
2021/07/15 00:33:01;;;;;;;16.48;14.65;;;;;;;21.53;72.68;97363.47;1713233;82;21472;-74
2021/07/15 00:35:27;;;;;;;19.55;15.00;;;;;;;21.50;72.79;97374.02;1713346;82;21035;-74
2021/07/15 00:37:55;;;;;;;18.12;16.23;;;;;;;21.46;73.13;97371.70;1713411;84;21440;-75
2021/07/15 00:51:58;;;;;;;18.48;16.57;;;;;;;21.27;72.75;97369.23;1723166;82;21025;-74
2021/07/15 00:54:25;;;;;;;19.98;17.82;;;;;;;21.19;73.47;97369.88;1713799;82;21042;-74
2021/07/15 00:56:52;;;;;;;20.45;17.92;;;;;;;21.10;72.60;97376.02;1732814;82;20966;-74
2021/07/15 00:59:21;;;;;;;22.27;18.30;;;;;;;21.05;73.20;97380.94;1743014;82;21060;-74
2021/07/15 01:01:48;;;;;;;19.60;17.62;;;;;;;21.01;74.05;97372.23;1736204;82;21447;-74
2021/07/15 01:04:15;;;;;;;20.62;17.62;;;;;;;20.96;72.63;97372.63;1709944;82;21018;-74
2021/07/15 01:06:42;;;;;;;20.92;17.30;;;;;;;20.91;73.80;97376.19;1743070;82;21048;-74
2021/07/15 01:09:09;;;;;;;20.05;17.00;;;;;;;20.85;74.14;97369.94;1743025;82;21056;-74
2021/07/15 01:12:04;;;;;;;20.05;16.97;;;;;;;20.75;75.09;97377.06;1737319;82;21035;-74
2021/07/15 01:15:02;;;;;;;23.20;17.25;;;;;;;20.72;73.76;97371.44;1715808;82;21454;-74
2021/07/15 01:17:33;;;;;;;20.65;16.57;;;;;;;20.65;73.91;97363.00;1714808;82;20994;-73
2021/07/15 01:20:35;;;;;;;19.20;17.02;;;;;;;20.62;74.17;97361.02;1697722;83;20978;-73
2021/07/15 01:23:39;;;;;;;19.85;17.85;;;;;;;20.59;74.13;97366.16;1720297;82;20981;-74
2021/07/15 01:26:31;;;;;;;19.52;17.35;;;;;;;20.54;75.63;97358.95;1743195;82;20958;-73
2021/07/15 01:29:30;;;;;;;20.85;18.12;;;;;;;20.38;74.82;97361.54;1694731;84;21030;-73
2021/07/15 01:32:02;;;;;;;20.37;18.17;;;;;;;20.33;75.48;97368.26;1722926;82;20978;-73
2021/07/15 01:34:30;;;;;;;20.65;18.05;;;;;;;20.28;75.04;97368.64;1746938;82;21040;-73
2021/07/15 01:36:57;;;;;;;23.90;18.40;;;;;;;20.23;78.43;97372.19;1712951;84;20993;-73
2021/07/15 01:39:29;;;;;;;19.60;17.60;;;;;;;20.20;75.90;97371.08;1719175;82;21036;-74
2021/07/15 01:42:00;;;;;;;20.70;17.52;;;;;;;20.15;77.09;97380.87;1738165;82;21383;-74
2021/07/15 01:44:30;;;;;;;21.48;17.55;;;;;;;20.12;76.34;97381.09;1654948;85;21065;-74
2021/07/15 01:46:56;;;;;;;22.40;17.23;;;;;;;20.13;76.21;97385.02;1698759;82;21053;-74
2021/07/15 01:49:26;;;;;;;20.27;16.82;;;;;;;20.15;76.54;97383.08;1740359;82;21071;-74
2021/07/15 01:51:56;;;;;;;19.40;16.07;;;;;;;20.17;76.52;97380.24;1677770;85;20993;-74
2021/07/15 01:54:25;;;;;;;19.20;16.85;;;;;;;20.18;76.64;97378.78;1677169;85;21034;-74
2021/07/15 01:56:53;;;;;;;20.90;15.10;;;;;;;20.20;76.85;97375.98;1711987;83;21014;-74
2021/07/15 01:59:24;;;;;;;17.23;15.38;;;;;;;20.20;77.13;97380.48;1711876;84;21096;-75
2021/07/15 02:01:53;;;;;;;25.17;16.85;;;;;;;20.20;77.39;97377.32;1678018;85;21398;-75
2021/07/15 02:04:21;;;;;;;20.65;16.50;;;;;;;20.26;77.62;97378.17;1640277;87;21036;-75
2021/07/15 02:06:52;;;;;;;17.52;15.32;;;;;;;20.29;77.06;97381.97;1716757;82;20950;-75
2021/07/15 02:09:20;;;;;;;19.05;16.65;;;;;;;20.29;78.21;97386.48;1726004;82;21079;-75
2021/07/15 02:11:50;;;;;;;18.35;16.23;;;;;;;20.30;77.27;97388.20;1671496;85;21053;-75
2021/07/15 02:14:20;;;;;;;19.50;16.77;;;;;;;20.29;77.42;97389.18;1658631;85;21006;-75
2021/07/15 02:16:51;;;;;;;20.62;17.17;;;;;;;20.29;77.45;97381.97;1730861;83;20998;-76
2021/07/15 02:19:20;;;;;;;20.52;17.48;;;;;;;20.24;78.07;97384.17;1740968;82;21368;-75
2021/07/15 02:21:48;;;;;;;23.32;17.50;;;;;;;20.20;77.42;97374.63;1737052;82;21041;-75
2021/07/15 02:24:18;;;;;;;21.23;17.20;;;;;;;20.18;77.01;97378.78;1713324;82;21062;-76
2021/07/15 02:26:47;;;;;;;20.72;17.07;;;;;;;20.16;76.98;97378.06;1713720;84;21019;-76
2021/07/15 02:29:14;;;;;;;22.73;17.23;;;;;;;20.12;76.71;97377.06;1713443;84;21019;-75
2021/07/15 02:31:58;;;;;;;23.05;17.45;;;;;;;20.08;76.63;97369.73;1716158;82;21045;-76
2021/07/15 02:34:29;;;;;;;23.45;17.23;;;;;;;20.02;76.99;97368.88;1719086;82;21411;-75
2021/07/15 02:36:59;;;;;;;19.85;17.82;;;;;;;19.93;77.47;97373.09;1713557;83;21013;-74
2021/07/15 02:39:26;;;;;;;19.12;17.12;;;;;;;19.83;77.66;97374.31;1713148;82;20998;-75
2021/07/15 02:41:53;;;;;;;22.62;17.45;;;;;;;19.76;78.06;97376.61;1714128;82;21021;-75
2021/07/15 02:44:20;;;;;;;21.05;17.57;;;;;;;19.74;78.13;97379.05;1713430;84;21407;-75
2021/07/15 02:46:46;;;;;;;20.43;18.23;;;;;;;19.74;77.81;97375.02;1736771;82;21013;-75
2021/07/15 02:49:13;;;;;;;19.50;17.25;;;;;;;19.73;78.29;97378.69;1678318;85;20976;-75
2021/07/15 02:51:39;;;;;;;21.20;17.77;;;;;;;19.73;78.24;97374.66;1670585;85;21079;-75
2021/07/15 02:54:06;;;;;;;20.00;17.87;;;;;;;19.73;77.61;97375.50;1680116;85;21409;-75
2021/07/15 02:56:40;;;;;;;22.93;17.67;;;;;;;19.72;77.69;97374.30;1703836;84;21056;-75
2021/07/15 02:59:56;;;;;;;26.40;18.70;;;;;;;19.69;78.01;97367.33;1702182;84;21037;-75
2021/07/15 03:02:32;;;;;;;;;;;;;;;19.65;79.06;97369.88;1701551;84;21046;-74
2021/07/15 03:05:22;;;;;;;20.90;18.48;;;;;;;19.60;78.00;97370.22;1691497;84;20079;-75
2021/07/15 03:07:54;;;;;;;24.27;19.00;;;;;;;19.56;79.47;97374.11;1705192;84;21097;-75
2021/07/15 03:10:21;;;;;;;23.10;18.35;;;;;;;19.54;79.18;97372.03;1692268;84;21000;-75
2021/07/15 03:12:50;;;;;;;21.23;17.92;;;;;;;19.55;79.74;97377.77;1705051;84;21060;-75
2021/07/15 03:15:17;;;;;;;21.68;17.82;;;;;;;19.55;79.59;97383.15;1705167;84;21060;-75
2021/07/15 03:17:48;;;;;;;19.52;17.42;;;;;;;19.52;79.87;97381.55;1674714;84;20957;-75
2021/07/15 03:20:22;;;;;;;18.92;16.73;;;;;;;19.48;80.07;97385.95;1701806;83;21454;-75
2021/07/15 03:22:53;;;;;;;20.00;17.12;;;;;;;19.44;80.34;97397.42;1682307;84;20993;-75
2021/07/15 03:25:20;;;;;;;20.82;17.85;;;;;;;19.46;80.91;97390.09;1714503;83;21055;-75
2021/07/15 03:27:51;;;;;;;22.22;18.15;;;;;;;19.48;81.27;97389.47;1673302;85;21024;-75
2021/07/15 03:30:18;;;;;;;21.42;16.75;;;;;;;19.47;81.25;97388.27;1691681;84;21012;-75
2021/07/15 03:32:49;;;;;;;20.82;17.90;;;;;;;19.52;80.77;97387.44;1704942;84;21008;-75
2021/07/15 03:35:18;;;;;;;20.02;17.77;;;;;;;19.58;80.61;97381.58;1704951;84;21041;-76
2021/07/15 03:37:47;;;;;;;21.50;17.07;;;;;;;19.67;80.40;97382.70;1719942;83;21005;-75
2021/07/15 03:40:18;;;;;;;22.62;16.45;;;;;;;19.74;80.31;97383.09;1714896;83;20978;-75
2021/07/15 03:42:46;;;;;;;24.92;17.20;;;;;;;19.78;80.26;97386.78;1692161;85;21056;-76
2021/07/15 03:45:19;;;;;;;20.12;16.95;;;;;;;19.86;79.93;97382.16;1692252;85;21001;-76
2021/07/15 03:47:52;;;;;;;24.70;18.37;;;;;;;19.90;79.79;97380.07;1697479;83;20996;-75
2021/07/15 03:50:26;;;;;;;21.52;18.27;;;;;;;19.90;79.68;97382.77;1713097;83;21582;-75
2021/07/15 03:52:58;;;;;;;20.37;17.40;;;;;;;19.94;79.80;97380.20;1713479;83;21441;-75
2021/07/15 03:55:28;;;;;;;23.77;19.77;;;;;;;20.00;80.08;97373.50;1715553;83;21064;-75
2021/07/15 03:57:56;;;;;;;21.00;18.67;;;;;;;20.03;79.03;97375.48;1715271;84;20990;-75
2021/07/15 04:00:25;;;;;;;21.10;18.82;;;;;;;20.09;78.84;97373.29;1692663;84;21472;-75
2021/07/15 04:03:00;;;;;;;24.77;20.43;;;;;;;20.04;79.59;97373.16;1687449;84;21404;-75
2021/07/15 04:05:30;;;;;;;20.97;18.45;;;;;;;20.03;78.87;97370.11;1706100;84;21092;-75
2021/07/15 04:07:59;;;;;;;22.40;19.20;;;;;;;20.05;78.66;97371.30;1715082;84;20934;-75
2021/07/15 04:10:31;;;;;;;22.32;19.62;;;;;;;20.08;78.86;97376.45;1709164;83;21013;-74
2021/07/15 04:12:59;;;;;;;21.45;19.15;;;;;;;20.10;78.84;97369.61;1701930;84;20981;-75
2021/07/15 04:15:40;;;;;;;24.55;20.08;;;;;;;20.10;78.41;97369.61;1712222;84;21037;-74
2021/07/15 04:18:10;;;;;;;23.38;19.60;;;;;;;20.14;78.18;97374.62;1686371;84;21415;-74
2021/07/15 04:20:40;;;;;;;22.22;19.82;;;;;;;20.20;78.29;97374.63;1687521;84;21805;-74
2021/07/15 04:23:09;;;;;;;23.00;20.10;;;;;;;20.24;77.87;97380.14;1690864;84;21425;-74
2021/07/15 04:25:36;;;;;;;24.80;21.12;;;;;;;20.27;78.07;97378.53;1716000;83;21041;-74
2021/07/15 04:28:05;;;;;;;26.23;20.37;;;;;;;20.31;78.50;97375.97;1706093;83;21001;-75
2021/07/15 04:30:33;;;;;;;22.95;20.52;;;;;;;20.32;78.47;97378.19;1687698;84;21017;-75
2021/07/15 04:33:10;;;;;;;25.48;20.75;;;;;;;20.35;78.63;97380.64;1687388;85;21084;-75
2021/07/15 04:35:39;;;;;;;24.92;20.92;;;;;;;20.36;78.63;97385.04;1701894;84;21005;-75
2021/07/15 04:38:07;;;;;;;26.68;19.73;;;;;;;20.39;78.21;97383.42;1697838;83;21005;-76
2021/07/15 04:40:35;;;;;;;27.20;21.15;;;;;;;20.38;78.18;97385.76;1700282;83;21129;-76
2021/07/15 04:43:08;;;;;;;24.27;20.75;;;;;;;20.40;77.89;97389.20;1715909;84;21387;-76
2021/07/15 04:45:40;;;;;;;23.83;20.00;;;;;;;20.45;78.74;97386.13;1696804;84;21051;-75
2021/07/15 04:48:08;;;;;;;28.02;20.23;;;;;;;20.51;78.24;97385.63;1716017;84;21044;-75
2021/07/15 04:50:37;;;;;;;24.00;19.02;;;;;;;20.60;78.23;97384.05;1689006;84;21478;-74
2021/07/15 04:53:11;;;;;;;29.80;18.42;;;;;;;20.70;78.31;97378.28;1687363;84;21063;-74
2021/07/15 04:55:38;;;;;;;27.15;19.92;;;;;;;20.83;77.96;97379.95;1709401;83;20994;-74
2021/07/15 04:58:06;;;;;;;24.07;18.40;;;;;;;20.93;77.74;97384.98;1718898;82;21052;-74
2021/07/15 05:00:34;;;;;;;24.63;19.45;;;;;;;21.03;77.59;97382.41;1722097;82;21022;-74
2021/07/15 05:03:34;;;;;;;24.32;18.50;;;;;;;21.16;77.42;97380.02;1730766;82;20982;-75
2021/07/15 05:06:05;;;;;;;28.23;20.43;;;;;;;21.28;77.02;97377.67;1744197;82;21036;-75
2021/07/15 05:08:32;;;;;;;27.65;20.52;;;;;;;21.39;76.72;97375.42;1739430;82;21049;-75
2021/07/15 05:11:00;;;;;;;24.82;19.82;;;;;;;21.49;76.26;97379.05;1721044;83;21026;-75
2021/07/15 05:13:26;;;;;;;23.42;19.10;;;;;;;21.60;75.90;97384.02;1721014;83;21042;-75
2021/07/15 05:15:54;;;;;;;24.65;18.42;;;;;;;21.69;75.03;97378.33;1722071;82;21006;-75
2021/07/15 05:18:21;;;;;;;25.50;18.90;;;;;;;21.76;74.97;97376.36;1737071;82;21008;-74
2021/07/15 05:20:48;;;;;;;22.20;17.65;;;;;;;21.87;74.82;97378.62;1749991;82;20997;-75
2021/07/15 05:23:14;;;;;;;20.90;17.17;;;;;;;21.97;74.61;97374.13;1751000;82;21024;-75
2021/07/15 05:25:41;;;;;;;21.30;17.48;;;;;;;22.06;74.40;97379.73;1696150;83;21432;-74
2021/07/15 05:28:09;;;;;;;20.43;16.57;;;;;;;22.14;74.09;97383.97;1672985;85;21455;-75
2021/07/15 05:30:35;;;;;;;23.12;16.90;;;;;;;22.22;73.89;97382.78;1726223;82;21412;-75
2021/07/15 05:33:01;;;;;;;18.73;15.95;;;;;;;22.30;73.55;97384.84;1737228;82;21031;-75
2021/07/15 05:35:28;;;;;;;21.02;15.45;;;;;;;22.37;73.30;97385.13;1737634;82;20989;-75
2021/07/15 05:37:55;;;;;;;20.65;15.45;;;;;;;22.45;73.09;97383.97;1737572;82;21434;-75
2021/07/15 05:40:21;;;;;;;17.42;14.95;;;;;;;22.51;72.80;97385.28;1721231;82;21013;-75
2021/07/15 05:42:49;;;;;;;19.52;14.00;;;;;;;22.60;72.61;97378.23;1746529;82;21013;-75
2021/07/15 05:45:16;;;;;;;20.95;14.40;;;;;;;22.67;72.33;97378.89;1737105;82;21462;-75
2021/07/15 05:47:43;;;;;;;18.42;13.83;;;;;;;22.77;72.09;97384.81;1721431;82;21010;-75
2021/07/15 05:50:11;;;;;;;17.40;13.00;;;;;;;22.86;71.72;97385.83;1721260;82;21062;-75
2021/07/15 05:52:39;;;;;;;24.52;14.45;;;;;;;22.93;71.49;97385.13;1747583;82;21016;-76
2021/07/15 05:55:08;;;;;;;18.00;14.23;;;;;;;23.01;71.04;97381.77;1740892;82;21048;-75
2021/07/15 05:57:35;;;;;;;16.97;13.03;;;;;;;23.11;70.91;97384.47;1726284;82;21459;-76
2021/07/15 06:00:06;;;;;;;22.17;13.18;;;;;;;23.22;70.28;97383.48;1715666;83;21033;-76
2021/07/15 06:02:33;;;;;;;19.07;13.15;;;;;;;23.32;70.15;97385.73;1713649;82;21017;-75
2021/07/15 06:05:01;;;;;;;19.75;13.48;;;;;;;23.41;69.93;97384.02;1722261;82;21065;-75
2021/07/15 06:07:28;;;;;;;18.73;13.38;;;;;;;23.51;69.84;97381.33;1727082;82;21418;-76
2021/07/15 06:09:54;;;;;;;21.30;13.53;;;;;;;23.60;69.71;97385.02;1722837;82;21028;-73
2021/07/15 06:12:21;;;;;;;22.15;13.38;;;;;;;23.68;69.07;97388.36;1724315;82;21356;-73
2021/07/15 06:14:49;;;;;;;20.77;13.98;;;;;;;23.75;69.11;97383.23;1733147;82;21009;-74
2021/07/15 06:17:16;;;;;;;17.23;13.72;;;;;;;23.84;68.82;97382.36;1717390;82;21530;-75
2021/07/15 06:19:42;;;;;;;15.35;12.90;;;;;;;23.93;68.16;97386.05;1733133;82;21051;-77
2021/07/15 06:22:10;;;;;;;19.30;13.25;;;;;;;24.01;68.15;97384.83;1713043;82;20954;-77
2021/07/15 06:24:36;;;;;;;18.02;13.68;;;;;;;24.09;67.65;97384.95;1734933;82;21008;-74
2021/07/15 06:27:03;;;;;;;15.35;13.15;;;;;;;24.16;67.56;97387.94;1742568;82;21032;-75
2021/07/15 06:29:29;;;;;;;15.75;13.43;;;;;;;24.22;67.35;97388.72;1678417;85;21742;-80
2021/07/15 06:31:56;;;;;;;15.83;12.45;;;;;;;24.30;67.03;97385.77;1720885;83;21076;-81
2021/07/15 06:34:23;;;;;;;16.10;12.60;;;;;;;24.36;66.98;97383.32;1738716;82;20953;-81
2021/07/15 06:36:51;;;;;;;19.85;13.18;;;;;;;24.43;66.81;97374.11;1732544;82;21474;-80
2021/07/15 06:39:17;;;;;;;18.98;12.90;;;;;;;24.51;66.25;97375.55;1713740;82;21062;-79
2021/07/15 06:41:44;;;;;;;17.80;13.22;;;;;;;24.59;66.03;97371.25;1714463;82;21955;-78
2021/07/15 06:44:13;;;;;;;20.70;14.33;;;;;;;24.67;65.81;97371.86;1729205;82;20950;-77
2021/07/15 06:46:41;;;;;;;15.90;12.53;;;;;;;24.72;65.07;97369.05;1723429;82;21035;-78
2021/07/15 06:49:07;;;;;;;15.23;12.82;;;;;;;24.78;65.14;97367.09;1738570;82;20966;-78
2021/07/15 06:51:34;;;;;;;15.08;12.20;;;;;;;24.86;64.59;97366.36;1730853;82;21001;-77
2021/07/15 06:54:01;;;;;;;19.62;13.43;;;;;;;24.90;64.34;97356.06;1741752;82;21394;-74
2021/07/15 06:56:28;;;;;;;17.75;12.90;;;;;;;25.00;64.32;97362.79;1734979;82;21001;-75
2021/07/15 06:58:54;;;;;;;17.00;12.53;;;;;;;25.15;64.16;97365.80;1720207;83;21398;-75
2021/07/15 07:01:21;;;;;;;17.07;12.85;;;;;;;25.15;64.16;97365.80;1720603;83;21000;-75
2021/07/15 07:03:47;;;;;;;17.73;11.68;;;;;;;25.28;63.66;97363.58;1721233;82;20994;-75
2021/07/15 07:06:14;;;;;;;20.85;13.20;;;;;;;25.28;63.66;97363.58;1721262;82;20967;-75
2021/07/15 07:08:41;;;;;;;19.32;12.70;;;;;;;25.35;63.42;97362.45;1725775;82;21005;-75
2021/07/15 07:11:08;;;;;;;20.85;13.30;;;;;;;25.43;62.90;97356.25;1729037;82;21012;-75
2021/07/15 07:13:34;;;;;;;15.48;12.40;;;;;;;25.51;62.70;97356.82;1686262;85;21043;-74
2021/07/15 07:16:01;;;;;;;18.00;12.25;;;;;;;25.60;62.51;97355.05;1671884;85;21498;-75
2021/07/15 07:18:27;;;;;;;20.55;12.63;;;;;;;25.67;62.14;97351.58;1719598;83;20981;-74
2021/07/15 07:20:55;;;;;;;21.73;12.93;;;;;;;25.71;61.09;97342.61;1720564;83;21081;-75
2021/07/15 07:23:21;;;;;;;18.75;13.05;;;;;;;25.78;61.21;97344.20;1721398;82;20986;-75
2021/07/15 07:25:48;;;;;;;19.00;13.05;;;;;;;25.83;60.99;97346.76;1720892;82;21074;-74
2021/07/15 07:28:14;;;;;;;17.48;12.75;;;;;;;25.93;61.11;97351.23;1742960;82;20985;-76
2021/07/15 07:30:41;;;;;;;14.40;12.75;;;;;;;26.00;60.88;97352.32;1726363;82;21022;-76
2021/07/15 07:33:07;;;;;;;18.70;12.37;;;;;;;26.07;60.97;97356.61;1721482;82;21014;-75
2021/07/15 07:35:34;;;;;;;17.12;12.73;;;;;;;26.14;60.33;97347.28;1746099;82;21415;-75
2021/07/15 07:38:01;;;;;;;23.30;15.18;;;;;;;26.20;60.12;97352.93;1722693;82;21075;-75
2021/07/15 07:40:27;;;;;;;22.82;17.87;;;;;;;26.26;60.04;97354.69;1745178;82;21009;-75
2021/07/15 07:42:54;;;;;;;19.77;14.03;;;;;;;26.31;59.75;97349.13;1731152;82;20989;-73
2021/07/15 07:45:21;;;;;;;19.05;14.13;;;;;;;26.36;59.75;97346.77;1724451;82;20993;-76
2021/07/15 07:47:47;;;;;;;19.15;13.20;;;;;;;26.41;59.55;97348.99;1750238;82;20993;-74
2021/07/15 07:50:15;;;;;;;23.92;13.75;;;;;;;26.49;59.69;97349.04;1750322;82;21041;-78
2021/07/15 07:52:42;;;;;;;18.02;13.85;;;;;;;26.55;59.15;97346.19;1749721;82;21415;-79
2021/07/15 07:55:11;;;;;;;18.20;13.50;;;;;;;26.61;58.18;97344.69;1731572;82;21046;-79
2021/07/15 07:57:38;;;;;;;17.02;13.90;;;;;;;26.68;58.14;97345.72;1713210;83;20989;-79
2021/07/15 08:00:09;;;;;;;15.72;12.33;;;;;;;26.74;56.95;97340.15;1712804;84;21063;-78
2021/07/15 08:02:40;;;;;;;16.50;13.75;;;;;;;26.83;57.33;97342.38;1715998;82;21415;-77
2021/07/15 08:05:09;;;;;;;17.52;13.60;;;;;;;26.92;57.71;97344.10;1729075;82;21044;-78
2021/07/15 08:07:36;;;;;;;16.27;13.15;;;;;;;27.00;58.02;97343.30;1678741;85;21017;-78
2021/07/15 08:10:07;;;;;;;17.23;13.68;;;;;;;27.08;57.69;97342.47;1678305;85;21021;-79
2021/07/15 08:12:34;;;;;;;14.60;12.73;;;;;;;27.18;57.44;97350.45;1677242;85;21017;-78
2021/07/15 08:15:01;;;;;;;19.70;13.18;;;;;;;27.25;57.54;97344.70;1680987;85;20993;-78
2021/07/15 08:17:27;;;;;;;17.67;13.28;;;;;;;27.32;57.27;97341.64;1726049;82;20954;-78
2021/07/15 08:19:53;;;;;;;15.95;12.98;;;;;;;27.39;57.11;97336.38;1715006;82;21038;-80
2021/07/15 08:22:22;;;;;;;16.67;12.75;;;;;;;27.44;56.79;97338.08;1727323;82;21017;-79
2021/07/15 08:24:48;;;;;;;17.55;13.78;;;;;;;27.50;56.70;97335.20;1703088;82;20992;-80
2021/07/15 08:27:15;;;;;;;15.03;13.53;;;;;;;27.59;56.72;97338.76;1727704;82;21009;-79
2021/07/15 08:29:41;;;;;;;17.50;14.10;;;;;;;27.66;56.33;97337.94;1713857;84;21017;-79
2021/07/15 08:32:08;;;;;;;17.85;13.50;;;;;;;27.73;56.21;97335.91;1715050;83;21070;-79
2021/07/15 08:34:35;;;;;;;20.45;14.20;;;;;;;27.81;56.24;97338.61;1711452;82;21020;-80
2021/07/15 08:37:02;;;;;;;20.52;13.62;;;;;;;27.89;55.76;97337.25;1707013;84;21045;-81
2021/07/15 08:39:29;;;;;;;19.98;14.33;;;;;;;27.98;55.76;97333.16;1742384;82;21079;-80
2021/07/15 08:42:01;;;;;;;18.50;14.38;;;;;;;28.07;55.50;97335.67;1694348;84;21050;-79
2021/07/15 08:44:29;;;;;;;21.12;14.35;;;;;;;28.13;54.87;97336.86;1654541;85;21065;-81
2021/07/15 08:46:57;;;;;;;21.75;14.05;;;;;;;28.24;55.00;97336.16;1705846;82;21104;-77
2021/07/15 08:49:25;;;;;;;20.27;14.30;;;;;;;28.33;54.59;97334.64;1721295;82;20974;-78
2021/07/15 08:51:51;;;;;;;17.02;13.68;;;;;;;28.40;54.39;97329.31;1726597;82;20948;-71
2021/07/15 08:54:17;;;;;;;15.50;13.15;;;;;;;28.49;54.26;97329.29;1721215;82;21443;-71
2021/07/15 08:56:47;;;;;;;22.75;14.43;;;;;;;28.56;54.42;97330.30;1723190;82;22217;-71
2021/07/15 08:59:17;;;;;;;17.20;13.00;;;;;;;28.66;54.13;97325.48;1720816;82;21005;-71
2021/07/15 09:01:50;;;;;;;13.83;12.40;;;;;;;28.71;53.71;97330.38;1721298;82;21002;-71
2021/07/15 09:04:20;;;;;;;16.60;14.80;;;;;;;28.78;53.71;97326.43;1720640;82;21059;-71
2021/07/15 09:06:45;;;;;;;16.62;13.60;;;;;;;28.83;53.35;97327.61;1725716;82;21030;-73
2021/07/15 09:09:12;;;;;;;26.25;14.45;;;;;;;28.92;53.42;97328.94;1735153;82;20973;-72
2021/07/15 09:11:42;;;;;;;19.62;13.65;;;;;;;28.96;52.74;97333.01;1725441;82;21049;-73
2021/07/15 09:14:19;;;;;;;15.80;12.80;;;;;;;29.01;53.02;97331.12;1732652;82;20989;-73
2021/07/15 09:16:58;;;;;;;20.00;13.22;;;;;;;29.09;53.12;97330.55;1730377;82;20997;-72
2021/07/15 09:19:26;;;;;;;15.63;13.28;;;;;;;29.14;52.70;97327.80;1723099;82;21036;-73
2021/07/15 09:21:57;;;;;;;19.20;13.15;;;;;;;29.21;52.60;97321.43;1731782;82;21144;-73
2021/07/15 09:24:40;;;;;;;18.30;13.90;;;;;;;29.27;52.61;97325.32;1729433;82;21037;-73
2021/07/15 09:27:17;;;;;;;16.35;12.45;;;;;;;29.35;51.12;97321.68;1734430;82;21415;-73
2021/07/15 09:29:46;;;;;;;16.90;13.35;;;;;;;29.40;51.82;97318.39;1736735;82;21436;-73
2021/07/15 09:32:17;;;;;;;21.87;14.18;;;;;;;29.44;50.84;97311.00;1716300;82;21033;-75
2021/07/15 09:34:44;;;;;;;15.60;12.73;;;;;;;29.53;51.87;97313.20;1677364;85;20999;-75
2021/07/15 09:37:16;;;;;;;17.00;13.20;;;;;;;29.64;51.69;97307.30;1663980;85;21391;-80
2021/07/15 09:39:48;;;;;;;18.32;14.15;;;;;;;29.74;51.54;97308.92;1667309;85;20986;-76
2021/07/15 09:42:19;;;;;;;19.05;13.68;;;;;;;29.81;50.55;97304.39;1740826;81;21080;-77
2021/07/15 09:44:52;;;;;;;21.12;13.95;;;;;;;29.88;50.25;97306.73;1747090;82;21000;-75
2021/07/15 09:47:39;;;;;;;19.12;13.00;;;;;;;29.95;50.43;97301.38;1727582;82;21394;-74
2021/07/15 09:50:23;;;;;;;22.85;14.25;;;;;;;30.00;50.07;97303.53;1736779;82;21489;-75
2021/07/15 09:52:51;;;;;;;17.60;12.98;;;;;;;30.03;49.82;97303.17;1732270;82;21099;-77
2021/07/15 09:55:27;;;;;;;17.00;13.00;;;;;;;30.07;49.98;97300.39;1732439;82;21099;-79
2021/07/15 09:58:04;;;;;;;16.52;13.80;;;;;;;30.10;49.87;97300.00;1733378;82;21091;-77
2021/07/15 10:00:34;;;;;;;21.25;13.72;;;;;;;30.19;50.06;97305.41;1727440;82;21033;-78
2021/07/15 10:03:01;;;;;;;17.50;12.95;;;;;;;30.31;49.45;97302.55;1728211;82;20987;-76
2021/07/15 10:05:28;;;;;;;18.85;13.00;;;;;;;30.35;49.32;97299.75;1724565;82;21001;-77
2021/07/15 10:08:10;;;;;;;14.60;13.08;;;;;;;30.48;49.16;97300.97;1705096;82;21093;-80
2021/07/15 10:10:38;;;;;;;18.23;13.80;;;;;;;30.61;49.11;97302.52;1724308;82;20962;-76
2021/07/15 10:13:19;;;;;;;16.45;13.85;;;;;;;30.77;48.79;97300.63;1719231;82;21381;-75
2021/07/15 10:15:48;;;;;;;18.67;13.85;;;;;;;30.87;48.36;97295.69;1720827;82;21033;-77
2021/07/15 10:18:37;;;;;;;15.72;12.98;;;;;;;30.97;48.56;97291.80;1718232;82;21030;-78
2021/07/15 10:21:06;;;;;;;20.17;13.40;;;;;;;31.04;48.09;97290.83;1718344;82;21109;-75
2021/07/15 10:23:36;;;;;;;16.02;12.50;;;;;;;31.08;47.72;97293.51;1719304;82;21099;-75
2021/07/15 10:26:05;;;;;;;18.57;13.95;;;;;;;31.18;47.06;97283.59;1723064;82;21020;-77
2021/07/15 10:28:34;;;;;;;14.23;12.35;;;;;;;31.31;46.72;97282.07;1731651;82;20971;-76
2021/07/15 10:31:05;;;;;;;17.35;12.80;;;;;;;31.44;47.30;97280.83;1709233;82;21031;-76
2021/07/15 10:33:33;;;;;;;15.72;13.08;;;;;;;31.61;45.94;97286.02;1724407;82;21024;-76
2021/07/15 10:36:03;;;;;;;16.85;13.93;;;;;;;31.69;45.64;97285.88;1721189;82;21484;-75
2021/07/15 10:38:36;;;;;;;18.60;13.65;;;;;;;31.73;43.56;97284.41;1722689;82;21049;-76
2021/07/15 10:41:03;;;;;;;18.65;13.35;;;;;;;31.90;45.68;97279.19;1727034;82;21497;-76
2021/07/15 10:43:32;;;;;;;15.75;13.15;;;;;;;32.05;45.40;97277.72;1722887;82;21033;-77
2021/07/15 10:46:02;;;;;;;20.55;13.45;;;;;;;32.24;45.29;97279.73;1724403;82;21490;-75
2021/07/15 10:48:30;;;;;;;15.32;13.72;;;;;;;32.47;45.00;97279.95;1732447;82;20985;-76
2021/07/15 10:50:59;;;;;;;19.27;13.32;;;;;;;32.99;41.50;97282.30;1724516;82;21033;-73
2021/07/15 10:53:28;;;;;;;16.80;12.55;;;;;;;33.78;42.27;97268.53;1739502;82;20997;-76
2021/07/15 10:55:56;;;;;;;22.60;12.43;;;;;;;34.66;41.01;97254.61;1678407;85;20996;-74
2021/07/15 10:58:47;;;;;;;26.15;13.93;;;;;;;35.34;39.97;97262.79;1657680;85;21074;-73
2021/07/15 11:01:43;;;;;;;13.68;12.33;;;;;;;36.12;38.65;97263.06;1660930;85;21496;-75
2021/07/15 11:04:13;;;;;;;15.63;12.47;;;;;;;36.90;36.50;97259.28;1712012;82;20995;-75
2021/07/15 11:06:51;;;;;;;18.73;11.50;;;;;;;37.69;35.62;97250.56;1712891;84;21524;-75
2021/07/15 11:09:28;;;;;;;16.87;11.85;;;;;;;38.32;33.37;97244.55;1712949;84;20964;-76
2021/07/15 11:12:01;;;;;;;13.50;11.45;;;;;;;38.50;32.88;97250.45;1713493;82;21016;-79
2021/07/15 11:14:49;;;;;;;14.50;12.28;;;;;;;38.80;32.37;97248.56;1692811;84;21480;-75
2021/07/15 11:17:27;;;;;;;15.13;10.75;;;;;;;39.33;31.78;97253.45;1714931;82;21081;-77
2021/07/15 11:20:08;;;;;;;14.68;11.65;;;;;;;39.26;30.43;97255.53;1721511;82;21021;-76
2021/07/15 11:22:55;;;;;;;15.25;11.63;;;;;;;38.79;31.06;97260.20;1678204;85;21483;-77
2021/07/15 11:25:39;;;;;;;13.62;10.63;;;;;;;37.94;31.15;97259.16;1732497;82;20965;-76
2021/07/15 11:28:15;;;;;;;19.42;15.05;;;;;;;36.99;31.98;97267.55;1730921;82;21015;-74
2021/07/15 11:30:48;;;;;;;16.35;14.78;;;;;;;36.26;32.75;97272.91;1714035;82;21458;-74
2021/07/15 11:33:23;;;;;;;14.58;13.10;;;;;;;35.58;33.66;97280.94;1714754;82;20981;-76
2021/07/15 11:36:00;;;;;;;13.48;11.33;;;;;;;35.10;34.61;97282.30;1712787;84;21064;-75
2021/07/15 11:38:41;;;;;;;20.85;11.55;;;;;;;34.67;35.22;97269.52;1719141;82;21044;-74
2021/07/15 11:41:16;;;;;;;14.73;11.63;;;;;;;34.59;35.33;97265.61;1721732;82;21535;-74
2021/07/15 11:43:58;;;;;;;12.47;11.22;;;;;;;35.40;35.01;97268.77;1725473;82;21071;-75